sensor_id;sensor_type;location;lat;lon;timestamp;temperature;humidity
19908;DHT22;10116;53.112;7.356;2023-06-22T00:02:17;28.70;99.90
19908;DHT22;10116;53.112;7.356;2023-06-22T00:04:43;28.70;99.90
19908;DHT22;10116;53.112;7.356;2023-06-22T00:07:09;28.70;99.90
19908;DHT22;10116;53.112;7.356;2023-06-22T00:09:34;28.70;99.90
19908;DHT22;10116;53.112;7.356;2023-06-22T00:12:00;28.70;99.90
19908;DHT22;10116;53.112;7.356;2023-06-22T00:14:26;28.70;99.90
19908;DHT22;10116;53.112;7.356;2023-06-22T00:16:52;28.70;99.90
19908;DHT22;10116;53.112;7.356;2023-06-22T00:19:22;28.70;99.90
19908;DHT22;10116;53.112;7.356;2023-06-22T00:21:48;28.70;99.90
19908;DHT22;10116;53.112;7.356;2023-06-22T00:24:21;28.70;99.90
19908;DHT22;10116;53.112;7.356;2023-06-22T00:26:50;28.70;99.90
19908;DHT22;10116;53.112;7.356;2023-06-22T00:29:15;28.70;99.90
19908;DHT22;10116;53.112;7.356;2023-06-22T00:31:41;28.70;99.90
19908;DHT22;10116;53.112;7.356;2023-06-22T00:34:07;28.70;99.90
19908;DHT22;10116;53.112;7.356;2023-06-22T00:36:34;28.70;99.90
19908;DHT22;10116;53.112;7.356;2023-06-22T00:39:00;28.60;99.90
19908;DHT22;10116;53.112;7.356;2023-06-22T00:41:26;28.70;99.90
19908;DHT22;10116;53.112;7.356;2023-06-22T00:43:54;28.60;99.90
19908;DHT22;10116;53.112;7.356;2023-06-22T00:46:20;28.60;99.90
19908;DHT22;10116;53.112;7.356;2023-06-22T00:48:46;28.70;99.90
19908;DHT22;10116;53.112;7.356;2023-06-22T00:51:11;28.60;99.90
19908;DHT22;10116;53.112;7.356;2023-06-22T00:53:37;28.60;99.90
19908;DHT22;10116;53.112;7.356;2023-06-22T00:56:03;28.60;99.90
19908;DHT22;10116;53.112;7.356;2023-06-22T00:58:31;28.60;99.90
19908;DHT22;10116;53.112;7.356;2023-06-22T01:00:57;28.60;99.90
19908;DHT22;10116;53.112;7.356;2023-06-22T01:03:22;28.60;99.90
19908;DHT22;10116;53.112;7.356;2023-06-22T01:05:48;28.60;99.90
19908;DHT22;10116;53.112;7.356;2023-06-22T01:16:19;28.50;99.90
19908;DHT22;10116;53.112;7.356;2023-06-22T01:18:48;28.50;99.90
19908;DHT22;10116;53.112;7.356;2023-06-22T01:21:18;28.50;99.90
19908;DHT22;10116;53.112;7.356;2023-06-22T01:24:01;28.50;99.90
19908;DHT22;10116;53.112;7.356;2023-06-22T01:29:04;28.50;99.90
19908;DHT22;10116;53.112;7.356;2023-06-22T01:31:32;28.50;99.90
19908;DHT22;10116;53.112;7.356;2023-06-22T01:34:04;28.40;99.90
19908;DHT22;10116;53.112;7.356;2023-06-22T01:36:31;28.40;99.90
19908;DHT22;10116;53.112;7.356;2023-06-22T01:38:58;28.40;99.90
19908;DHT22;10116;53.112;7.356;2023-06-22T01:41:26;28.40;99.90
19908;DHT22;10116;53.112;7.356;2023-06-22T01:43:53;28.40;99.90
19908;DHT22;10116;53.112;7.356;2023-06-22T01:46:20;28.40;99.90
19908;DHT22;10116;53.112;7.356;2023-06-22T01:48:46;28.40;99.90
19908;DHT22;10116;53.112;7.356;2023-06-22T01:51:13;28.40;99.90
19908;DHT22;10116;53.112;7.356;2023-06-22T01:53:39;28.40;99.90
19908;DHT22;10116;53.112;7.356;2023-06-22T01:56:04;28.40;99.90
19908;DHT22;10116;53.112;7.356;2023-06-22T01:58:31;28.40;99.90
19908;DHT22;10116;53.112;7.356;2023-06-22T02:01:09;28.40;99.90
19908;DHT22;10116;53.112;7.356;2023-06-22T02:03:40;28.40;99.90
19908;DHT22;10116;53.112;7.356;2023-06-22T02:06:08;28.40;99.90
19908;DHT22;10116;53.112;7.356;2023-06-22T02:08:41;28.40;99.90
19908;DHT22;10116;53.112;7.356;2023-06-22T02:11:09;28.40;99.90
19908;DHT22;10116;53.112;7.356;2023-06-22T02:13:36;28.40;99.90
19908;DHT22;10116;53.112;7.356;2023-06-22T02:16:03;28.40;99.90
19908;DHT22;10116;53.112;7.356;2023-06-22T02:18:29;28.40;99.90
19908;DHT22;10116;53.112;7.356;2023-06-22T02:20:54;28.40;99.90
19908;DHT22;10116;53.112;7.356;2023-06-22T02:23:20;28.30;99.90
19908;DHT22;10116;53.112;7.356;2023-06-22T02:25:45;28.30;99.90
19908;DHT22;10116;53.112;7.356;2023-06-22T02:28:11;28.30;99.90
19908;DHT22;10116;53.112;7.356;2023-06-22T02:30:37;28.30;99.90
19908;DHT22;10116;53.112;7.356;2023-06-22T02:33:02;28.30;99.90
19908;DHT22;10116;53.112;7.356;2023-06-22T02:35:29;28.30;99.90
19908;DHT22;10116;53.112;7.356;2023-06-22T02:38:02;28.30;99.90
19908;DHT22;10116;53.112;7.356;2023-06-22T02:40:28;28.30;99.90
19908;DHT22;10116;53.112;7.356;2023-06-22T02:42:54;28.30;99.90
19908;DHT22;10116;53.112;7.356;2023-06-22T02:45:20;28.30;99.90
19908;DHT22;10116;53.112;7.356;2023-06-22T02:47:46;28.30;99.90
19908;DHT22;10116;53.112;7.356;2023-06-22T02:50:13;28.30;99.90
19908;DHT22;10116;53.112;7.356;2023-06-22T02:52:39;28.30;99.90
19908;DHT22;10116;53.112;7.356;2023-06-22T02:55:05;28.30;99.90
19908;DHT22;10116;53.112;7.356;2023-06-22T02:57:32;28.30;99.90
19908;DHT22;10116;53.112;7.356;2023-06-22T02:59:58;28.30;99.90
19908;DHT22;10116;53.112;7.356;2023-06-22T03:02:24;28.30;99.90
19908;DHT22;10116;53.112;7.356;2023-06-22T03:04:51;28.30;99.90
19908;DHT22;10116;53.112;7.356;2023-06-22T03:07:19;28.30;99.90
19908;DHT22;10116;53.112;7.356;2023-06-22T03:09:45;28.30;99.90
19908;DHT22;10116;53.112;7.356;2023-06-22T03:12:10;28.30;99.90
19908;DHT22;10116;53.112;7.356;2023-06-22T03:14:36;28.30;99.90
19908;DHT22;10116;53.112;7.356;2023-06-22T03:17:02;28.20;99.90
19908;DHT22;10116;53.112;7.356;2023-06-22T03:19:29;28.30;99.90
19908;DHT22;10116;53.112;7.356;2023-06-22T03:21:57;28.20;99.90
19908;DHT22;10116;53.112;7.356;2023-06-22T03:24:23;28.20;99.90
19908;DHT22;10116;53.112;7.356;2023-06-22T03:26:48;28.30;99.90
19908;DHT22;10116;53.112;7.356;2023-06-22T03:29:14;28.30;99.90
19908;DHT22;10116;53.112;7.356;2023-06-22T03:31:39;28.40;99.90
19908;DHT22;10116;53.112;7.356;2023-06-22T03:34:05;28.40;99.90
19908;DHT22;10116;53.112;7.356;2023-06-22T03:36:31;28.40;99.90
19908;DHT22;10116;53.112;7.356;2023-06-22T03:38:56;28.40;99.90
19908;DHT22;10116;53.112;7.356;2023-06-22T03:41:22;28.50;99.90
19908;DHT22;10116;53.112;7.356;2023-06-22T03:43:47;28.50;99.90
19908;DHT22;10116;53.112;7.356;2023-06-22T03:46:13;28.50;99.90
19908;DHT22;10116;53.112;7.356;2023-06-22T03:48:39;28.50;99.90
19908;DHT22;10116;53.112;7.356;2023-06-22T03:51:04;28.50;99.90
19908;DHT22;10116;53.112;7.356;2023-06-22T03:53:30;28.60;99.90
19908;DHT22;10116;53.112;7.356;2023-06-22T03:55:55;28.60;99.90
19908;DHT22;10116;53.112;7.356;2023-06-22T03:58:21;28.60;99.90
19908;DHT22;10116;53.112;7.356;2023-06-22T04:00:49;28.60;99.90
19908;DHT22;10116;53.112;7.356;2023-06-22T04:03:15;28.60;99.90
19908;DHT22;10116;53.112;7.356;2023-06-22T04:05:41;28.60;99.90
19908;DHT22;10116;53.112;7.356;2023-06-22T04:08:07;28.60;99.90
19908;DHT22;10116;53.112;7.356;2023-06-22T04:10:33;28.60;99.90
19908;DHT22;10116;53.112;7.356;2023-06-22T04:13:00;28.60;99.90
19908;DHT22;10116;53.112;7.356;2023-06-22T04:15:25;28.60;99.90
19908;DHT22;10116;53.112;7.356;2023-06-22T04:17:51;28.60;99.90
19908;DHT22;10116;53.112;7.356;2023-06-22T04:20:16;28.60;99.90
19908;DHT22;10116;53.112;7.356;2023-06-22T04:22:42;28.60;99.90
19908;DHT22;10116;53.112;7.356;2023-06-22T04:25:08;28.60;99.90
19908;DHT22;10116;53.112;7.356;2023-06-22T04:27:34;28.60;99.90
19908;DHT22;10116;53.112;7.356;2023-06-22T04:30:06;28.60;99.90
19908;DHT22;10116;53.112;7.356;2023-06-22T04:32:33;28.60;99.90
19908;DHT22;10116;53.112;7.356;2023-06-22T04:34:58;28.60;99.90
19908;DHT22;10116;53.112;7.356;2023-06-22T04:37:25;28.70;99.90
19908;DHT22;10116;53.112;7.356;2023-06-22T04:39:51;28.70;99.90
19908;DHT22;10116;53.112;7.356;2023-06-22T04:42:17;28.70;99.90
19908;DHT22;10116;53.112;7.356;2023-06-22T04:44:43;28.70;99.90
19908;DHT22;10116;53.112;7.356;2023-06-22T04:47:08;28.70;99.90
19908;DHT22;10116;53.112;7.356;2023-06-22T04:49:35;28.70;99.90
19908;DHT22;10116;53.112;7.356;2023-06-22T04:52:10;28.70;99.90
19908;DHT22;10116;53.112;7.356;2023-06-22T04:54:38;28.70;99.90
19908;DHT22;10116;53.112;7.356;2023-06-22T04:57:05;28.80;99.90
19908;DHT22;10116;53.112;7.356;2023-06-22T04:59:35;28.80;99.90
19908;DHT22;10116;53.112;7.356;2023-06-22T05:02:02;28.80;99.90
19908;DHT22;10116;53.112;7.356;2023-06-22T05:04:29;28.90;99.90
19908;DHT22;10116;53.112;7.356;2023-06-22T05:07:02;28.90;99.90
19908;DHT22;10116;53.112;7.356;2023-06-22T05:09:28;29.00;99.90
19908;DHT22;10116;53.112;7.356;2023-06-22T05:11:54;29.00;99.90
19908;DHT22;10116;53.112;7.356;2023-06-22T05:14:21;29.10;99.90
19908;DHT22;10116;53.112;7.356;2023-06-22T05:16:48;29.10;99.90
19908;DHT22;10116;53.112;7.356;2023-06-22T05:19:14;29.20;99.90
19908;DHT22;10116;53.112;7.356;2023-06-22T05:21:39;29.20;99.90
19908;DHT22;10116;53.112;7.356;2023-06-22T05:24:05;29.20;99.90
19908;DHT22;10116;53.112;7.356;2023-06-22T05:26:34;29.20;99.90
19908;DHT22;10116;53.112;7.356;2023-06-22T05:29:01;29.20;99.90
19908;DHT22;10116;53.112;7.356;2023-06-22T05:31:28;29.20;99.90
19908;DHT22;10116;53.112;7.356;2023-06-22T05:33:54;29.20;99.90
19908;DHT22;10116;53.112;7.356;2023-06-22T05:36:21;29.20;99.90
19908;DHT22;10116;53.112;7.356;2023-06-22T05:38:47;29.20;99.90
19908;DHT22;10116;53.112;7.356;2023-06-22T05:41:12;29.20;99.90
19908;DHT22;10116;53.112;7.356;2023-06-22T05:43:39;29.30;99.90
19908;DHT22;10116;53.112;7.356;2023-06-22T05:46:05;29.30;99.90
19908;DHT22;10116;53.112;7.356;2023-06-22T05:48:31;29.30;99.90
19908;DHT22;10116;53.112;7.356;2023-06-22T05:50:56;29.30;99.90
19908;DHT22;10116;53.112;7.356;2023-06-22T05:53:22;29.30;99.90
19908;DHT22;10116;53.112;7.356;2023-06-22T05:55:48;29.30;99.90
19908;DHT22;10116;53.112;7.356;2023-06-22T05:58:14;29.30;99.90
19908;DHT22;10116;53.112;7.356;2023-06-22T06:00:40;29.30;99.90
19908;DHT22;10116;53.112;7.356;2023-06-22T06:03:10;29.30;99.90
19908;DHT22;10116;53.112;7.356;2023-06-22T06:05:36;29.30;99.90
19908;DHT22;10116;53.112;7.356;2023-06-22T06:08:04;29.30;99.90
19908;DHT22;10116;53.112;7.356;2023-06-22T06:10:31;29.30;99.90
19908;DHT22;10116;53.112;7.356;2023-06-22T06:12:57;29.30;99.90
19908;DHT22;10116;53.112;7.356;2023-06-22T06:15:23;29.30;99.90
19908;DHT22;10116;53.112;7.356;2023-06-22T06:17:50;29.30;99.90
19908;DHT22;10116;53.112;7.356;2023-06-22T06:20:22;29.30;99.90
19908;DHT22;10116;53.112;7.356;2023-06-22T06:22:48;29.30;99.90
19908;DHT22;10116;53.112;7.356;2023-06-22T06:25:14;29.30;99.90
19908;DHT22;10116;53.112;7.356;2023-06-22T06:27:49;29.30;99.90
19908;DHT22;10116;53.112;7.356;2023-06-22T06:30:17;29.20;99.90
19908;DHT22;10116;53.112;7.356;2023-06-22T06:32:43;29.30;99.90
19908;DHT22;10116;53.112;7.356;2023-06-22T06:35:11;29.30;99.90
19908;DHT22;10116;53.112;7.356;2023-06-22T06:37:40;29.20;99.90
19908;DHT22;10116;53.112;7.356;2023-06-22T06:40:07;29.20;99.90
19908;DHT22;10116;53.112;7.356;2023-06-22T06:42:47;29.20;99.90
19908;DHT22;10116;53.112;7.356;2023-06-22T06:45:19;29.20;99.90
19908;DHT22;10116;53.112;7.356;2023-06-22T06:47:45;29.20;99.90
19908;DHT22;10116;53.112;7.356;2023-06-22T06:50:12;29.20;99.90
19908;DHT22;10116;53.112;7.356;2023-06-22T06:52:37;29.20;99.90
19908;DHT22;10116;53.112;7.356;2023-06-22T06:55:03;29.30;99.90
19908;DHT22;10116;53.112;7.356;2023-06-22T06:57:34;29.30;99.90
19908;DHT22;10116;53.112;7.356;2023-06-22T07:00:00;29.30;99.90
19908;DHT22;10116;53.112;7.356;2023-06-22T07:02:26;29.30;99.90
19908;DHT22;10116;53.112;7.356;2023-06-22T07:04:53;29.30;99.90
19908;DHT22;10116;53.112;7.356;2023-06-22T07:07:20;29.30;99.90
19908;DHT22;10116;53.112;7.356;2023-06-22T07:09:46;29.30;99.90
19908;DHT22;10116;53.112;7.356;2023-06-22T07:12:12;29.30;99.90
19908;DHT22;10116;53.112;7.356;2023-06-22T07:14:37;29.30;99.90
19908;DHT22;10116;53.112;7.356;2023-06-22T07:17:03;29.30;99.90
19908;DHT22;10116;53.112;7.356;2023-06-22T07:19:29;29.40;99.90
19908;DHT22;10116;53.112;7.356;2023-06-22T07:21:56;29.40;99.90
19908;DHT22;10116;53.112;7.356;2023-06-22T07:24:22;29.30;99.90
19908;DHT22;10116;53.112;7.356;2023-06-22T07:26:48;29.40;99.90
19908;DHT22;10116;53.112;7.356;2023-06-22T07:29:16;29.40;99.90
19908;DHT22;10116;53.112;7.356;2023-06-22T07:31:42;29.40;99.90
19908;DHT22;10116;53.112;7.356;2023-06-22T07:34:08;29.40;99.90
19908;DHT22;10116;53.112;7.356;2023-06-22T07:36:34;29.40;99.90
19908;DHT22;10116;53.112;7.356;2023-06-22T07:39:01;29.40;99.90
19908;DHT22;10116;53.112;7.356;2023-06-22T07:41:28;29.30;99.90
19908;DHT22;10116;53.112;7.356;2023-06-22T07:43:53;29.40;99.90
19908;DHT22;10116;53.112;7.356;2023-06-22T07:46:19;29.30;99.90
19908;DHT22;10116;53.112;7.356;2023-06-22T07:48:44;29.40;99.90
19908;DHT22;10116;53.112;7.356;2023-06-22T07:51:10;29.40;99.90
19908;DHT22;10116;53.112;7.356;2023-06-22T07:53:43;29.40;99.90
19908;DHT22;10116;53.112;7.356;2023-06-22T07:56:12;29.30;99.90
19908;DHT22;10116;53.112;7.356;2023-06-22T07:58:38;29.30;99.90
19908;DHT22;10116;53.112;7.356;2023-06-22T08:01:04;29.30;99.90
19908;DHT22;10116;53.112;7.356;2023-06-22T08:03:30;29.30;99.90
19908;DHT22;10116;53.112;7.356;2023-06-22T08:05:56;29.30;99.90
19908;DHT22;10116;53.112;7.356;2023-06-22T08:08:21;29.30;99.90
19908;DHT22;10116;53.112;7.356;2023-06-22T08:10:47;29.30;99.90
19908;DHT22;10116;53.112;7.356;2023-06-22T08:13:13;29.30;99.90
19908;DHT22;10116;53.112;7.356;2023-06-22T08:15:39;29.20;99.90
19908;DHT22;10116;53.112;7.356;2023-06-22T08:18:05;29.20;99.90
19908;DHT22;10116;53.112;7.356;2023-06-22T08:20:30;29.20;99.90
19908;DHT22;10116;53.112;7.356;2023-06-22T08:22:56;29.20;99.90
19908;DHT22;10116;53.112;7.356;2023-06-22T08:25:25;29.20;99.90
19908;DHT22;10116;53.112;7.356;2023-06-22T08:27:51;29.20;99.90
19908;DHT22;10116;53.112;7.356;2023-06-22T08:30:17;29.20;99.90
19908;DHT22;10116;53.112;7.356;2023-06-22T08:32:44;29.20;99.90
19908;DHT22;10116;53.112;7.356;2023-06-22T08:35:10;29.20;99.90
19908;DHT22;10116;53.112;7.356;2023-06-22T08:37:36;29.20;99.90
19908;DHT22;10116;53.112;7.356;2023-06-22T08:40:05;29.20;99.90
19908;DHT22;10116;53.112;7.356;2023-06-22T08:42:33;29.20;99.90
19908;DHT22;10116;53.112;7.356;2023-06-22T08:44:58;29.20;99.90
19908;DHT22;10116;53.112;7.356;2023-06-22T08:47:24;29.20;99.90
19908;DHT22;10116;53.112;7.356;2023-06-22T08:49:50;29.20;99.90
19908;DHT22;10116;53.112;7.356;2023-06-22T08:52:18;29.20;99.90
19908;DHT22;10116;53.112;7.356;2023-06-22T08:54:45;29.20;99.90
19908;DHT22;10116;53.112;7.356;2023-06-22T08:57:11;29.20;99.90
19908;DHT22;10116;53.112;7.356;2023-06-22T08:59:36;29.20;99.90
19908;DHT22;10116;53.112;7.356;2023-06-22T09:02:02;29.20;99.90
19908;DHT22;10116;53.112;7.356;2023-06-22T09:04:27;29.10;99.90
19908;DHT22;10116;53.112;7.356;2023-06-22T09:06:53;29.20;99.90
19908;DHT22;10116;53.112;7.356;2023-06-22T09:09:21;29.20;99.90
19908;DHT22;10116;53.112;7.356;2023-06-22T09:11:47;29.10;99.90
19908;DHT22;10116;53.112;7.356;2023-06-22T09:14:12;29.10;99.90
19908;DHT22;10116;53.112;7.356;2023-06-22T09:16:38;29.10;99.90
19908;DHT22;10116;53.112;7.356;2023-06-22T09:19:04;29.10;99.90
19908;DHT22;10116;53.112;7.356;2023-06-22T09:21:29;29.10;99.90
19908;DHT22;10116;53.112;7.356;2023-06-22T09:23:55;29.10;99.90
19908;DHT22;10116;53.112;7.356;2023-06-22T09:26:21;29.10;99.90
19908;DHT22;10116;53.112;7.356;2023-06-22T09:28:49;29.10;99.90
19908;DHT22;10116;53.112;7.356;2023-06-22T09:31:15;29.10;99.90
19908;DHT22;10116;53.112;7.356;2023-06-22T09:33:42;29.10;99.90
19908;DHT22;10116;53.112;7.356;2023-06-22T09:36:07;29.10;99.90
19908;DHT22;10116;53.112;7.356;2023-06-22T09:38:37;29.10;99.90
19908;DHT22;10116;53.112;7.356;2023-06-22T09:41:02;29.00;99.90
19908;DHT22;10116;53.112;7.356;2023-06-22T09:43:28;29.10;99.90
19908;DHT22;10116;53.112;7.356;2023-06-22T09:45:54;29.00;99.90
19908;DHT22;10116;53.112;7.356;2023-06-22T09:48:19;29.00;99.90
19908;DHT22;10116;53.112;7.356;2023-06-22T09:50:45;29.00;99.90
19908;DHT22;10116;53.112;7.356;2023-06-22T09:53:10;29.00;99.90
19908;DHT22;10116;53.112;7.356;2023-06-22T09:55:36;29.00;99.90
19908;DHT22;10116;53.112;7.356;2023-06-22T09:58:02;29.00;99.90
19908;DHT22;10116;53.112;7.356;2023-06-22T10:00:27;29.00;99.90
19908;DHT22;10116;53.112;7.356;2023-06-22T10:02:53;29.00;99.90
19908;DHT22;10116;53.112;7.356;2023-06-22T10:05:18;29.00;99.90
19908;DHT22;10116;53.112;7.356;2023-06-22T10:07:44;29.10;99.90
19908;DHT22;10116;53.112;7.356;2023-06-22T10:10:11;29.10;99.90
19908;DHT22;10116;53.112;7.356;2023-06-22T10:12:44;29.10;99.90
19908;DHT22;10116;53.112;7.356;2023-06-22T10:15:10;29.20;99.90
19908;DHT22;10116;53.112;7.356;2023-06-22T10:17:36;29.20;99.90
19908;DHT22;10116;53.112;7.356;2023-06-22T10:20:02;29.20;99.90
19908;DHT22;10116;53.112;7.356;2023-06-22T10:22:40;29.20;99.90
19908;DHT22;10116;53.112;7.356;2023-06-22T10:25:07;29.30;99.90
19908;DHT22;10116;53.112;7.356;2023-06-22T10:27:32;29.30;99.90
19908;DHT22;10116;53.112;7.356;2023-06-22T10:29:58;29.30;99.90
19908;DHT22;10116;53.112;7.356;2023-06-22T10:32:24;29.30;99.90
19908;DHT22;10116;53.112;7.356;2023-06-22T10:34:49;29.40;99.90
19908;DHT22;10116;53.112;7.356;2023-06-22T10:37:15;29.40;99.90
19908;DHT22;10116;53.112;7.356;2023-06-22T10:39:40;29.40;99.90
19908;DHT22;10116;53.112;7.356;2023-06-22T10:42:06;29.40;99.90
19908;DHT22;10116;53.112;7.356;2023-06-22T10:44:31;29.40;99.90
19908;DHT22;10116;53.112;7.356;2023-06-22T10:46:57;29.40;99.90
19908;DHT22;10116;53.112;7.356;2023-06-22T10:49:23;29.40;99.90
19908;DHT22;10116;53.112;7.356;2023-06-22T10:51:48;29.40;99.90
19908;DHT22;10116;53.112;7.356;2023-06-22T10:54:14;29.40;99.90
19908;DHT22;10116;53.112;7.356;2023-06-22T10:56:40;29.40;99.90
19908;DHT22;10116;53.112;7.356;2023-06-22T10:59:06;29.40;99.90
19908;DHT22;10116;53.112;7.356;2023-06-22T11:01:31;29.40;99.90
19908;DHT22;10116;53.112;7.356;2023-06-22T11:03:58;29.40;99.90
19908;DHT22;10116;53.112;7.356;2023-06-22T11:06:24;29.50;99.90
19908;DHT22;10116;53.112;7.356;2023-06-22T11:08:49;29.50;99.90
19908;DHT22;10116;53.112;7.356;2023-06-22T11:11:15;29.50;99.90
19908;DHT22;10116;53.112;7.356;2023-06-22T11:13:43;29.50;99.90
19908;DHT22;10116;53.112;7.356;2023-06-22T11:16:10;29.50;99.90
19908;DHT22;10116;53.112;7.356;2023-06-22T11:18:36;29.50;99.90
19908;DHT22;10116;53.112;7.356;2023-06-22T11:21:01;29.40;99.90
19908;DHT22;10116;53.112;7.356;2023-06-22T11:23:27;29.50;99.90
19908;DHT22;10116;53.112;7.356;2023-06-22T11:25:54;29.50;99.90
19908;DHT22;10116;53.112;7.356;2023-06-22T11:28:20;29.50;99.90
19908;DHT22;10116;53.112;7.356;2023-06-22T11:30:45;29.50;99.90
19908;DHT22;10116;53.112;7.356;2023-06-22T11:33:11;29.40;99.90
19908;DHT22;10116;53.112;7.356;2023-06-22T11:35:37;29.40;99.90
19908;DHT22;10116;53.112;7.356;2023-06-22T11:38:02;29.40;99.90
19908;DHT22;10116;53.112;7.356;2023-06-22T11:40:29;29.40;99.90
19908;DHT22;10116;53.112;7.356;2023-06-22T11:42:55;29.40;99.90
19908;DHT22;10116;53.112;7.356;2023-06-22T11:45:21;29.40;99.90
19908;DHT22;10116;53.112;7.356;2023-06-22T11:47:47;29.40;99.90
19908;DHT22;10116;53.112;7.356;2023-06-22T11:50:12;29.40;99.90
19908;DHT22;10116;53.112;7.356;2023-06-22T11:52:38;29.40;99.90
19908;DHT22;10116;53.112;7.356;2023-06-22T11:55:05;29.40;99.90
19908;DHT22;10116;53.112;7.356;2023-06-22T11:57:36;29.50;99.90
19908;DHT22;10116;53.112;7.356;2023-06-22T12:00:03;29.50;99.90
19908;DHT22;10116;53.112;7.356;2023-06-22T12:02:32;29.50;99.90
19908;DHT22;10116;53.112;7.356;2023-06-22T12:04:57;29.50;99.90
19908;DHT22;10116;53.112;7.356;2023-06-22T12:07:23;29.50;99.90
19908;DHT22;10116;53.112;7.356;2023-06-22T12:09:49;29.60;99.90
19908;DHT22;10116;53.112;7.356;2023-06-22T12:12:15;29.60;99.90
19908;DHT22;10116;53.112;7.356;2023-06-22T12:14:40;29.60;99.90
19908;DHT22;10116;53.112;7.356;2023-06-22T12:17:06;29.60;99.90
19908;DHT22;10116;53.112;7.356;2023-06-22T12:19:32;29.60;99.90
19908;DHT22;10116;53.112;7.356;2023-06-22T12:21:57;29.70;99.90
19908;DHT22;10116;53.112;7.356;2023-06-22T12:24:23;29.60;99.90
19908;DHT22;10116;53.112;7.356;2023-06-22T12:26:49;29.70;99.90
19908;DHT22;10116;53.112;7.356;2023-06-22T12:29:14;29.70;99.90
19908;DHT22;10116;53.112;7.356;2023-06-22T12:31:40;29.70;99.90
19908;DHT22;10116;53.112;7.356;2023-06-22T12:34:06;29.70;99.90
19908;DHT22;10116;53.112;7.356;2023-06-22T12:36:32;29.70;99.90
19908;DHT22;10116;53.112;7.356;2023-06-22T12:38:58;29.70;99.90
19908;DHT22;10116;53.112;7.356;2023-06-22T12:41:23;29.70;99.90
19908;DHT22;10116;53.112;7.356;2023-06-22T12:43:49;29.70;99.90
19908;DHT22;10116;53.112;7.356;2023-06-22T12:46:14;29.70;99.90
19908;DHT22;10116;53.112;7.356;2023-06-22T12:48:40;29.70;99.90
19908;DHT22;10116;53.112;7.356;2023-06-22T12:51:08;29.70;99.90
19908;DHT22;10116;53.112;7.356;2023-06-22T12:53:35;29.70;99.90
19908;DHT22;10116;53.112;7.356;2023-06-22T12:56:00;29.70;99.90
19908;DHT22;10116;53.112;7.356;2023-06-22T12:58:26;29.70;99.90
19908;DHT22;10116;53.112;7.356;2023-06-22T13:00:51;29.70;99.90
19908;DHT22;10116;53.112;7.356;2023-06-22T13:03:17;29.70;99.90
19908;DHT22;10116;53.112;7.356;2023-06-22T13:05:42;29.70;99.90
19908;DHT22;10116;53.112;7.356;2023-06-22T13:08:08;29.70;99.90
19908;DHT22;10116;53.112;7.356;2023-06-22T13:10:34;29.70;99.90
19908;DHT22;10116;53.112;7.356;2023-06-22T13:12:59;29.70;99.90
19908;DHT22;10116;53.112;7.356;2023-06-22T13:15:28;29.70;99.90
19908;DHT22;10116;53.112;7.356;2023-06-22T13:17:55;29.70;99.90
19908;DHT22;10116;53.112;7.356;2023-06-22T13:20:21;29.70;99.90
19908;DHT22;10116;53.112;7.356;2023-06-22T13:22:46;29.70;99.90
19908;DHT22;10116;53.112;7.356;2023-06-22T13:25:12;29.70;99.90
19908;DHT22;10116;53.112;7.356;2023-06-22T13:27:42;29.70;99.90
19908;DHT22;10116;53.112;7.356;2023-06-22T13:30:08;29.70;99.90
19908;DHT22;10116;53.112;7.356;2023-06-22T13:32:34;29.60;99.90
19908;DHT22;10116;53.112;7.356;2023-06-22T13:35:00;29.60;99.90
19908;DHT22;10116;53.112;7.356;2023-06-22T13:37:26;29.60;99.90
19908;DHT22;10116;53.112;7.356;2023-06-22T13:39:51;29.60;99.90
19908;DHT22;10116;53.112;7.356;2023-06-22T13:42:17;29.60;99.90
19908;DHT22;10116;53.112;7.356;2023-06-22T13:44:42;29.60;99.90
19908;DHT22;10116;53.112;7.356;2023-06-22T13:47:08;29.60;99.90
19908;DHT22;10116;53.112;7.356;2023-06-22T13:49:34;29.60;99.90
19908;DHT22;10116;53.112;7.356;2023-06-22T13:52:00;29.60;99.90
19908;DHT22;10116;53.112;7.356;2023-06-22T13:54:25;29.60;99.90
19908;DHT22;10116;53.112;7.356;2023-06-22T13:56:51;29.60;99.90
19908;DHT22;10116;53.112;7.356;2023-06-22T13:59:16;29.70;99.90
19908;DHT22;10116;53.112;7.356;2023-06-22T14:01:42;29.70;99.90
19908;DHT22;10116;53.112;7.356;2023-06-22T14:04:08;29.70;99.90
19908;DHT22;10116;53.112;7.356;2023-06-22T14:06:34;29.70;99.90
19908;DHT22;10116;53.112;7.356;2023-06-22T14:08:59;29.70;99.90
19908;DHT22;10116;53.112;7.356;2023-06-22T14:11:25;29.70;99.90
19908;DHT22;10116;53.112;7.356;2023-06-22T14:13:51;29.70;99.90
19908;DHT22;10116;53.112;7.356;2023-06-22T14:16:17;29.70;99.90
19908;DHT22;10116;53.112;7.356;2023-06-22T14:18:42;29.70;99.90
19908;DHT22;10116;53.112;7.356;2023-06-22T14:21:08;29.70;99.90
19908;DHT22;10116;53.112;7.356;2023-06-22T14:23:33;29.70;99.90
19908;DHT22;10116;53.112;7.356;2023-06-22T14:25:59;29.70;99.90
19908;DHT22;10116;53.112;7.356;2023-06-22T14:28:25;29.70;99.90
19908;DHT22;10116;53.112;7.356;2023-06-22T14:30:50;29.70;99.90
19908;DHT22;10116;53.112;7.356;2023-06-22T14:33:16;29.70;99.90
19908;DHT22;10116;53.112;7.356;2023-06-22T14:35:41;29.60;99.90
19908;DHT22;10116;53.112;7.356;2023-06-22T14:38:07;29.60;99.90
19908;DHT22;10116;53.112;7.356;2023-06-22T14:40:32;29.70;99.90
19908;DHT22;10116;53.112;7.356;2023-06-22T14:42:58;29.60;99.90
19908;DHT22;10116;53.112;7.356;2023-06-22T14:45:24;29.60;99.90
19908;DHT22;10116;53.112;7.356;2023-06-22T14:47:49;29.60;99.90
19908;DHT22;10116;53.112;7.356;2023-06-22T14:50:15;29.60;99.90
19908;DHT22;10116;53.112;7.356;2023-06-22T14:52:41;29.60;99.90
19908;DHT22;10116;53.112;7.356;2023-06-22T14:55:07;29.60;99.90
19908;DHT22;10116;53.112;7.356;2023-06-22T14:57:33;29.60;99.90
19908;DHT22;10116;53.112;7.356;2023-06-22T14:59:59;29.60;99.90
19908;DHT22;10116;53.112;7.356;2023-06-22T15:02:26;29.60;99.90
19908;DHT22;10116;53.112;7.356;2023-06-22T15:04:52;29.50;99.90
19908;DHT22;10116;53.112;7.356;2023-06-22T15:07:18;29.50;99.90
19908;DHT22;10116;53.112;7.356;2023-06-22T15:09:45;29.50;99.90
19908;DHT22;10116;53.112;7.356;2023-06-22T15:12:11;29.50;99.90
19908;DHT22;10116;53.112;7.356;2023-06-22T15:14:40;29.50;99.90
19908;DHT22;10116;53.112;7.356;2023-06-22T15:17:07;29.50;99.90
19908;DHT22;10116;53.112;7.356;2023-06-22T15:19:36;29.50;99.90
19908;DHT22;10116;53.112;7.356;2023-06-22T15:22:07;29.40;99.90
19908;DHT22;10116;53.112;7.356;2023-06-22T15:24:33;29.40;99.90
19908;DHT22;10116;53.112;7.356;2023-06-22T15:26:59;29.40;99.90
19908;DHT22;10116;53.112;7.356;2023-06-22T15:29:25;29.40;99.90
19908;DHT22;10116;53.112;7.356;2023-06-22T15:31:52;29.40;99.90
19908;DHT22;10116;53.112;7.356;2023-06-22T15:34:17;29.40;99.90
19908;DHT22;10116;53.112;7.356;2023-06-22T15:36:43;29.40;99.90